Overview Statistics Trail Chart Weather Telemetry Raw packets
 

This is the latest recevied weather packets stored in our database for station/object KC0OOO-WX. If no packets are shown the sender has not sent any weather packets the latest 10 day(s).

<< 27 28 29 30 31 32 33 >>
Time Temp. Humidity Pressure Rain* Wind** Luminosity Snow
1777350510 4.44° C 63% 1016.9 hPa 0 mm - - -
1777349880 4.44° C 64% 1016.9 hPa 0 mm - - -
1777349280 3.89° C 62% 1016.6 hPa 0 mm - - -
1777348650 4.44° C 62% 1016.6 hPa 0 mm - - -
1777348020 4.44° C 63% 1016.6 hPa 0 mm - - -
1777347420 4.44° C 61% 1016.6 hPa 0 mm - - -
1777346820 5° C 60% 1016.3 hPa 0 mm - - -
1777346189 5° C 59% 1016.3 hPa 0 mm - - -
1777345589 5.56° C 59% 1016.3 hPa 0 mm - - -
1777344989 6.11° C 57% 1016.3 hPa 0 mm - - -
1777344389 6.67° C 54% 1015.9 hPa 0 mm - - -
1777343789 7.78° C 52% 1015.9 hPa 0 mm - - -
1777343189 7.78° C 53% 1015.9 hPa 0 mm - - -
1777342589 8.33° C 51% 1015.9 hPa 0 mm - - -
1777341989 8.89° C 49% 1015.9 hPa 0 mm - - -
1777341389 10° C 46% 1015.9 hPa 0 mm - - -
1777340789 10.56° C 42% 1015.6 hPa 0 mm - - -
1777340189 11.11° C 38% 1015.6 hPa 0 mm - - -
1777339559 11.67° C 35% 1015.6 hPa 0 mm - - -
1777338959 12.78° C 32% 1015.6 hPa 0 mm - - -
1777338359 13.33° C 31% 1015.6 hPa 0 mm - - -
1777337759 14.44° C 31% 1015.6 hPa 0 mm - - -
1777337129 13.89° C 34% 1015.9 hPa 0 mm - - -
1777336529 13.33° C 34% 1015.9 hPa 0 mm - - -
1777335929 13.33° C 32% 1015.9 hPa 0 mm - - -

* Rain latest hour (hover to see other rain measurements)
** Current wind speed in m/s (hover to see current wind gust speed)